Time;durP1;ratioP1;P1;durP2;ratioP2;P2;SDS_P1;SDS_P2;PMS_P1;PMS_P2;Temp;Humidity;BMP_temperature;BMP_pressure;BME280_temperature;BME280_humidity;BME280_pressure;Samples;Min_cycle;Max_cycle;Signal;HPM_P1;HPM_P2
2024/04/05 00:02:21;;;;;;;5.07;3.08;;;10.90;99.90;;;;;;5050778;28;20048;-79
2024/04/05 00:04:46;;;;;;;4.35;2.70;;;10.80;99.90;;;;;;5052471;28;20021;-78
2024/04/05 00:07:12;;;;;;;3.10;1.98;;;10.90;99.90;;;;;;5052988;28;20059;-78
2024/04/05 00:09:41;;;;;;;5.97;2.83;;;10.80;99.90;;;;;;5050590;28;20017;-77
2024/04/05 00:12:07;;;;;;;10.02;2.65;;;10.80;99.90;;;;;;5048513;28;20495;-79
2024/04/05 00:14:33;;;;;;;5.80;2.47;;;10.90;99.90;;;;;;5051821;28;20100;-78
2024/04/05 00:16:59;;;;;;;5.95;2.33;;;10.80;99.90;;;;;;5050280;28;20028;-78
2024/04/05 00:19:24;;;;;;;5.55;2.63;;;10.70;99.90;;;;;;5050018;28;20017;-78
2024/04/05 00:21:50;;;;;;;2.55;2.20;;;10.80;99.90;;;;;;5050382;28;20021;-77
2024/04/05 00:24:15;;;;;;;3.10;1.95;;;10.80;99.90;;;;;;5049146;28;20104;-77
2024/04/05 00:26:41;;;;;;;6.40;2.20;;;10.90;99.90;;;;;;5048478;28;20029;-77
2024/04/05 00:29:07;;;;;;;3.95;1.92;;;10.90;99.90;;;;;;5051089;28;20028;-77
2024/04/05 00:31:32;;;;;;;2.83;1.80;;;11.00;99.90;;;;;;5050693;28;20652;-77
2024/04/05 00:33:58;;;;;;;4.78;2.38;;;11.00;99.90;;;;;;5049294;28;20027;-78
2024/04/05 00:36:23;;;;;;;5.40;2.45;;;11.00;99.90;;;;;;5050253;28;20029;-77
2024/04/05 00:38:50;;;;;;;5.07;2.10;;;11.00;99.90;;;;;;5051300;28;20021;-78
2024/04/05 00:41:16;;;;;;;4.78;2.30;;;10.90;99.90;;;;;;5048706;28;20017;-77
2024/04/05 00:43:42;;;;;;;6.65;2.03;;;10.90;99.90;;;;;;5051506;28;20048;-79
2024/04/05 00:46:08;;;;;;;4.57;2.30;;;10.90;99.90;;;;;;5051351;28;20017;-78
2024/04/05 00:48:34;;;;;;;4.68;2.08;;;10.90;99.90;;;;;;5050308;28;20429;-77
2024/04/05 00:51:00;;;;;;;5.63;2.22;;;10.90;99.90;;;;;;5049502;28;20100;-78
2024/04/05 00:53:31;;;;;;;3.92;1.75;;;10.90;99.90;;;;;;5050538;28;20100;-77
2024/04/05 00:56:02;;;;;;;6.88;2.10;;;11.00;99.90;;;;;;5050040;28;20387;-78
2024/04/05 00:58:27;;;;;;;2.33;1.73;;;11.00;99.90;;;;;;5049132;28;20040;-77
2024/04/05 01:00:53;;;;;;;4.35;1.88;;;10.90;99.90;;;;;;5050851;28;20518;-78
2024/04/05 01:03:19;;;;;;;4.75;1.88;;;10.90;99.90;;;;;;5080542;28;20092;-79
2024/04/05 01:05:47;;;;;;;4.57;1.90;;;10.90;99.90;;;;;;5048423;28;20437;-78
2024/04/05 01:08:14;;;;;;;5.68;1.70;;;11.00;99.90;;;;;;5049043;28;20035;-77
2024/04/05 01:10:40;;;;;;;4.85;2.08;;;11.00;99.90;;;;;;5050206;28;20483;-78
2024/04/05 01:13:08;;;;;;;5.40;2.30;;;11.10;99.90;;;;;;5046953;28;20097;-77
2024/04/05 01:15:34;;;;;;;5.20;1.90;;;11.10;99.90;;;;;;5049391;28;20028;-78
2024/04/05 01:18:03;;;;;;;3.85;2.10;;;11.00;99.90;;;;;;5050358;28;20027;-77
2024/04/05 01:20:30;;;;;;;6.82;2.13;;;11.00;99.90;;;;;;5048305;28;20020;-78
2024/04/05 01:23:00;;;;;;;4.97;1.70;;;11.10;99.90;;;;;;5048876;28;20044;-78
2024/04/05 01:25:25;;;;;;;2.65;1.52;;;11.00;99.90;;;;;;5049039;28;20022;-77
2024/04/05 01:27:51;;;;;;;3.65;2.00;;;10.90;99.90;;;;;;5048433;28;20448;-78
2024/04/05 01:30:17;;;;;;;4.35;1.70;;;10.90;99.90;;;;;;5047627;28;20534;-78
2024/04/05 01:33:01;;;;;;;5.25;1.77;;;10.80;99.90;;;;;;5050341;28;20675;-78
2024/04/05 01:35:28;;;;;;;3.38;2.00;;;10.80;99.90;;;;;;5080181;28;20044;-77
2024/04/05 01:37:57;;;;;;;3.53;1.90;;;10.90;99.90;;;;;;5048532;28;20029;-78
2024/04/05 01:40:23;;;;;;;3.78;1.60;;;10.80;99.90;;;;;;5049483;28;20429;-78
2024/04/05 01:42:49;;;;;;;5.25;2.15;;;10.80;99.90;;;;;;5044961;28;20499;-79
2024/04/05 01:45:14;;;;;;;6.13;2.22;;;10.90;99.90;;;;;;5047469;28;20102;-79
2024/04/05 01:47:40;;;;;;;4.07;1.95;;;10.80;99.90;;;;;;5049100;28;20032;-77
2024/04/05 01:50:06;;;;;;;4.03;2.17;;;10.80;99.90;;;;;;5048427;28;20021;-78
2024/04/05 01:52:32;;;;;;;3.22;1.85;;;10.90;99.90;;;;;;5046747;28;20039;-79
2024/04/05 01:54:59;;;;;;;6.30;2.50;;;10.90;99.90;;;;;;5050401;28;20021;-77
2024/04/05 01:57:25;;;;;;;10.27;2.42;;;10.90;99.90;;;;;;5048194;28;20479;-77
2024/04/05 01:59:52;;;;;;;4.88;2.03;;;10.80;99.90;;;;;;5046480;28;20502;-79
2024/04/05 02:02:18;;;;;;;5.03;2.17;;;10.90;99.90;;;;;;5049226;28;20426;-78
2024/04/05 02:04:44;;;;;;;7.50;2.13;;;10.80;99.90;;;;;;5048714;28;20021;-77
2024/04/05 02:07:10;;;;;;;6.70;2.55;;;10.80;99.90;;;;;;5078266;28;20087;-78
2024/04/05 02:09:36;;;;;;;3.63;1.95;;;10.80;99.90;;;;;;5046807;28;20487;-77
2024/04/05 02:12:01;;;;;;;4.90;1.80;;;10.80;99.90;;;;;;5049576;28;20102;-77
2024/04/05 02:14:27;;;;;;;6.45;2.38;;;10.90;99.90;;;;;;5048754;28;20037;-78
2024/04/05 02:16:58;;;;;;;4.13;2.00;;;10.80;99.90;;;;;;5048457;28;20083;-77
2024/04/05 02:19:24;;;;;;;4.05;1.90;;;10.80;99.90;;;;;;5049559;28;20020;-77
2024/04/05 02:21:49;;;;;;;2.45;1.75;;;10.80;99.90;;;;;;5048427;28;20636;-78
2024/04/05 02:24:15;;;;;;;6.38;1.90;;;10.90;99.90;;;;;;5046352;28;20509;-79
2024/04/05 02:26:41;;;;;;;7.10;2.20;;;10.80;99.90;;;;;;5078981;28;20013;-77
2024/04/05 02:29:07;;;;;;;7.47;2.30;;;10.80;99.90;;;;;;5076872;28;20120;-78
2024/04/05 02:31:33;;;;;;;4.07;2.10;;;10.80;99.90;;;;;;5048553;28;20566;-78
2024/04/05 02:33:58;;;;;;;5.75;2.15;;;10.90;99.90;;;;;;5048494;28;20112;-78
2024/04/05 02:36:24;;;;;;;4.75;2.53;;;10.80;99.90;;;;;;5078305;28;20112;-77
2024/04/05 02:38:50;;;;;;;4.22;2.53;;;10.80;99.90;;;;;;5048479;28;20116;-78
2024/04/05 02:41:16;;;;;;;6.22;2.30;;;10.80;99.90;;;;;;5076815;28;20056;-78
2024/04/05 02:43:41;;;;;;;6.97;2.15;;;10.90;99.90;;;;;;5049094;28;20075;-78
2024/04/05 02:46:07;;;;;;;4.13;2.28;;;11.00;99.90;;;;;;5045078;28;20078;-78
2024/04/05 02:48:33;;;;;;;9.57;2.47;;;11.10;99.90;;;;;;5049081;28;20033;-78
2024/04/05 02:50:58;;;;;;;8.13;2.10;;;11.10;99.90;;;;;;5049197;28;20065;-78
2024/04/05 02:53:24;;;;;;;4.05;2.35;;;11.00;99.90;;;;;;5045992;28;20492;-78
2024/04/05 02:55:50;;;;;;;8.70;2.15;;;11.00;99.90;;;;;;5047511;28;20017;-78
2024/04/05 02:58:16;;;;;;;6.82;2.08;;;10.90;99.90;;;;;;5049074;28;20025;-78
2024/04/05 03:00:45;;;;;;;3.47;1.95;;;10.90;99.90;;;;;;5047151;28;20551;-78
2024/04/05 03:03:10;;;;;;;3.85;2.20;;;10.80;99.90;;;;;;5045271;28;20092;-77
2024/04/05 03:05:36;;;;;;;4.32;2.00;;;10.80;99.90;;;;;;5049237;28;20544;-78
2024/04/05 03:08:02;;;;;;;4.32;2.38;;;10.80;99.90;;;;;;5047312;28;20188;-78
2024/04/05 03:10:29;;;;;;;6.78;2.05;;;10.80;99.90;;;;;;5044090;28;20483;-77
2024/04/05 03:12:56;;;;;;;6.75;2.30;;;10.80;99.90;;;;;;5048330;28;20017;-79
2024/04/05 03:15:22;;;;;;;4.60;1.90;;;10.80;99.90;;;;;;5046706;28;20135;-80
2024/04/05 03:17:47;;;;;;;3.95;1.92;;;10.80;99.90;;;;;;5046021;28;20036;-79
2024/04/05 03:20:13;;;;;;;2.85;2.08;;;10.80;99.90;;;;;;5046663;28;20370;-79
2024/04/05 03:22:39;;;;;;;2.47;1.65;;;10.80;99.90;;;;;;5048462;28;20009;-79
2024/04/05 03:25:06;;;;;;;9.25;1.80;;;10.90;99.90;;;;;;5077886;28;20474;-79
2024/04/05 03:27:31;;;;;;;3.83;1.90;;;10.90;99.90;;;;;;5078256;28;20029;-78
2024/04/05 03:29:57;;;;;;;7.47;2.67;;;10.80;99.90;;;;;;5048596;28;20467;-78
2024/04/05 03:32:22;;;;;;;3.92;1.70;;;10.90;99.90;;;;;;5045144;28;20056;-78
2024/04/05 03:34:48;;;;;;;3.72;1.70;;;10.90;99.90;;;;;;5046640;28;20029;-78
2024/04/05 03:37:13;;;;;;;6.82;2.50;;;10.80;99.90;;;;;;5050371;28;20020;-78
2024/04/05 03:39:39;;;;;;;6.13;2.78;;;10.80;99.90;;;;;;5046140;28;20013;-78
2024/04/05 03:42:05;;;;;;;12.70;4.10;;;10.80;99.90;;;;;;5047358;28;20021;-77
2024/04/05 03:44:31;;;;;;;10.48;3.22;;;10.80;99.90;;;;;;5047521;28;20025;-77
2024/04/05 03:46:56;;;;;;;7.20;3.53;;;10.80;99.90;;;;;;5047709;28;20021;-77
2024/04/05 03:49:22;;;;;;;5.72;3.00;;;10.80;99.90;;;;;;5043031;28;20111;-78
2024/04/05 03:51:47;;;;;;;5.70;2.70;;;10.80;99.90;;;;;;5047688;28;20047;-78
2024/04/05 03:54:13;;;;;;;3.65;2.22;;;10.70;99.90;;;;;;5075366;28;20028;-77
2024/04/05 03:56:39;;;;;;;6.20;2.47;;;10.70;99.90;;;;;;5047363;28;20591;-78
2024/04/05 03:59:05;;;;;;;5.25;2.08;;;10.70;99.90;;;;;;5046182;28;20021;-78
2024/04/05 04:01:31;;;;;;;6.35;2.75;;;10.70;99.90;;;;;;5049810;28;20061;-77
2024/04/05 04:03:57;;;;;;;5.63;2.13;;;10.70;99.90;;;;;;5051397;28;20049;-79
2024/04/05 04:06:22;;;;;;;8.20;2.53;;;10.70;99.90;;;;;;5050955;28;20025;-78
2024/04/05 04:08:48;;;;;;;6.32;2.20;;;10.70;99.90;;;;;;5078772;28;20485;-80
2024/04/05 04:11:14;;;;;;;7.07;2.42;;;10.60;99.90;;;;;;5046409;28;20103;-80
2024/04/05 04:13:39;;;;;;;5.65;2.10;;;10.60;99.90;;;;;;5047036;28;20231;-79
2024/04/05 04:16:05;;;;;;;3.65;2.03;;;10.60;99.90;;;;;;5052451;28;20468;-78
2024/04/05 04:18:31;;;;;;;6.38;2.50;;;10.60;99.90;;;;;;5048588;28;20032;-77
2024/04/05 04:20:57;;;;;;;4.22;2.55;;;10.60;99.90;;;;;;5079901;28;20498;-77
2024/04/05 04:23:23;;;;;;;4.28;2.40;;;10.70;99.90;;;;;;5051658;28;20142;-78
2024/04/05 04:25:50;;;;;;;9.20;3.15;;;10.60;99.90;;;;;;5050213;28;20024;-79
2024/04/05 04:28:16;;;;;;;5.70;2.53;;;10.60;99.90;;;;;;5047766;28;20025;-78
2024/04/05 04:30:45;;;;;;;6.70;2.88;;;10.50;99.90;;;;;;5051923;28;20039;-79
2024/04/05 04:33:14;;;;;;;5.25;3.20;;;10.50;99.90;;;;;;5046583;28;20013;-78
2024/04/05 04:35:46;;;;;;;3.67;2.70;;;10.50;99.90;;;;;;5047918;28;20035;-78
2024/04/05 04:38:12;;;;;;;3.92;2.92;;;10.40;99.90;;;;;;5050909;28;20098;-78
2024/04/05 04:40:38;;;;;;;5.63;3.20;;;10.40;99.90;;;;;;5049292;28;20020;-78
2024/04/05 04:43:05;;;;;;;4.47;2.97;;;10.40;99.90;;;;;;5047960;28;20446;-78
2024/04/05 04:45:30;;;;;;;5.43;2.88;;;10.40;99.90;;;;;;5047206;28;20024;-77
2024/04/05 04:47:56;;;;;;;10.27;3.08;;;10.40;99.90;;;;;;5050938;28;20107;-77
2024/04/05 04:50:21;;;;;;;11.25;2.80;;;10.50;99.90;;;;;;5048451;28;20030;-78
2024/04/05 04:52:47;;;;;;;11.77;3.20;;;10.40;99.90;;;;;;5048454;28;20024;-77
2024/04/05 04:55:13;;;;;;;6.30;3.10;;;10.40;99.90;;;;;;5049556;28;20020;-78
2024/04/05 04:57:38;;;;;;;8.63;3.03;;;10.40;99.90;;;;;;5047620;28;20029;-77
2024/04/05 05:00:04;;;;;;;5.28;3.05;;;10.50;99.90;;;;;;5046171;28;20032;-78
2024/04/05 05:02:30;;;;;;;7.75;3.58;;;10.40;99.90;;;;;;5050547;28;20115;-77
2024/04/05 05:04:56;;;;;;;5.68;3.20;;;10.40;99.90;;;;;;5048652;28;20167;-78
2024/04/05 05:07:21;;;;;;;7.70;3.60;;;10.30;99.90;;;;;;5075420;28;20060;-79
2024/04/05 05:09:47;;;;;;;5.90;3.10;;;10.40;99.90;;;;;;5049932;28;20059;-77
2024/04/05 05:12:12;;;;;;;6.97;3.42;;;10.40;99.90;;;;;;5052780;28;20032;-78
2024/04/05 05:14:38;;;;;;;11.23;3.45;;;10.40;99.90;;;;;;5058138;28;20513;-77
2024/04/05 05:17:05;;;;;;;11.50;3.28;;;10.50;99.90;;;;;;5047731;28;20479;-77
2024/04/05 05:19:31;;;;;;;6.47;3.67;;;10.40;99.90;;;;;;5076568;28;20032;-77
2024/04/05 05:21:57;;;;;;;5.60;4.00;;;10.40;99.90;;;;;;5047575;28;20025;-77
2024/04/05 05:24:23;;;;;;;6.75;3.40;;;10.40;99.90;;;;;;5068292;28;20013;-79
2024/04/05 05:26:49;;;;;;;13.15;3.83;;;10.40;99.90;;;;;;5077832;28;20047;-78
2024/04/05 05:29:14;;;;;;;6.43;3.67;;;10.40;99.90;;;;;;5077145;28;20295;-78
2024/04/05 05:31:40;;;;;;;10.45;3.70;;;10.50;99.90;;;;;;5043905;28;20128;-77
2024/04/05 05:34:06;;;;;;;10.35;3.97;;;10.50;99.90;;;;;;5050160;28;20624;-77
2024/04/05 05:36:31;;;;;;;7.72;3.58;;;10.50;99.90;;;;;;5075289;28;20029;-77
2024/04/05 05:38:57;;;;;;;7.72;3.58;;;10.50;99.90;;;;;;5048739;28;20059;-79
2024/04/05 05:41:23;;;;;;;7.18;3.63;;;10.50;99.90;;;;;;5048646;28;20610;-77
2024/04/05 05:43:48;;;;;;;10.02;3.90;;;10.40;99.90;;;;;;5049660;28;20036;-78
2024/04/05 05:46:14;;;;;;;8.40;3.55;;;10.50;99.90;;;;;;5044521;28;20027;-77
2024/04/05 05:48:39;;;;;;;5.25;3.58;;;10.50;99.90;;;;;;5042670;28;20096;-77
2024/04/05 05:51:05;;;;;;;6.55;3.35;;;10.40;99.90;;;;;;5048180;28;20411;-77
2024/04/05 05:53:30;;;;;;;10.50;3.88;;;10.40;99.90;;;;;;5044228;28;20045;-80
2024/04/05 05:55:56;;;;;;;8.43;3.53;;;10.40;99.90;;;;;;5046390;28;20021;-79
2024/04/05 05:58:22;;;;;;;9.98;4.13;;;10.40;99.90;;;;;;5047389;28;20029;-77
2024/04/05 06:00:47;;;;;;;12.13;4.05;;;10.40;99.90;;;;;;5045370;28;20047;-79
2024/04/05 06:03:13;;;;;;;8.50;4.00;;;10.50;99.90;;;;;;5048938;28;20386;-77
2024/04/05 06:05:38;;;;;;;11.88;4.38;;;10.50;99.90;;;;;;5047464;28;20036;-78
2024/04/05 06:08:06;;;;;;;12.38;4.10;;;10.50;99.90;;;;;;5046719;28;20025;-78
2024/04/05 06:10:31;;;;;;;5.97;3.72;;;10.50;99.90;;;;;;5075486;28;20033;-78
2024/04/05 06:12:57;;;;;;;11.93;4.20;;;10.50;99.90;;;;;;5048325;28;20021;-77
2024/04/05 06:15:23;;;;;;;6.90;3.80;;;10.50;99.90;;;;;;5046953;28;20021;-77
2024/04/05 06:17:48;;;;;;;5.57;3.65;;;10.50;99.90;;;;;;5043993;28;20021;-78
2024/04/05 06:20:17;;;;;;;8.63;3.78;;;10.60;99.90;;;;;;5048336;28;20026;-77
2024/04/05 06:22:42;;;;;;;9.32;4.30;;;10.60;99.90;;;;;;5045433;28;20063;-78
2024/04/05 06:25:08;;;;;;;6.85;3.97;;;10.60;99.90;;;;;;5044424;28;20021;-79
2024/04/05 06:27:37;;;;;;;6.32;3.90;;;10.60;99.90;;;;;;5075717;28;20033;-77
2024/04/05 06:30:03;;;;;;;8.05;3.83;;;10.70;99.90;;;;;;5047652;28;20055;-77
2024/04/05 06:32:30;;;;;;;6.43;3.97;;;10.80;99.90;;;;;;5072611;28;20029;-78
2024/04/05 06:34:56;;;;;;;7.72;4.43;;;10.90;99.90;;;;;;5047504;28;20032;-78
2024/04/05 06:37:21;;;;;;;9.98;4.97;;;11.00;99.90;;;;;;5050795;28;20033;-78
2024/04/05 06:39:51;;;;;;;7.65;4.85;;;11.00;99.90;;;;;;5045241;28;20031;-78
2024/04/05 06:42:17;;;;;;;7.22;4.78;;;11.10;99.90;;;;;;5042988;28;20021;-78
2024/04/05 06:44:42;;;;;;;12.30;4.72;;;11.20;99.90;;;;;;5047978;28;20030;-77
2024/04/05 06:47:09;;;;;;;11.55;5.65;;;11.10;99.90;;;;;;5048900;28;20039;-78
2024/04/05 06:49:37;;;;;;;13.88;5.13;;;11.10;99.90;;;;;;5040303;28;20033;-78
2024/04/05 06:52:06;;;;;;;8.70;4.40;;;11.20;99.90;;;;;;5055022;28;20490;-78
2024/04/05 06:54:39;;;;;;;19.40;4.57;;;11.20;99.90;;;;;;5052918;28;20059;-80
2024/04/05 06:57:05;;;;;;;10.88;4.93;;;11.30;99.90;;;;;;5042818;28;20283;-77
2024/04/05 06:59:33;;;;;;;6.57;4.28;;;11.30;99.90;;;;;;5045537;28;20530;-77
2024/04/05 07:01:59;;;;;;;10.00;5.32;;;11.30;99.90;;;;;;5045348;28;20017;-77
2024/04/05 07:04:26;;;;;;;7.82;4.65;;;11.30;99.90;;;;;;5043296;28;20100;-77
2024/04/05 07:06:54;;;;;;;14.27;5.60;;;11.50;99.90;;;;;;5047525;28;20009;-78
2024/04/05 07:09:21;;;;;;;8.48;4.25;;;11.40;99.90;;;;;;5043546;28;20044;-78
2024/04/05 07:11:48;;;;;;;7.95;4.82;;;11.40;99.90;;;;;;5071797;28;20022;-77
2024/04/05 07:14:16;;;;;;;12.77;3.97;;;11.50;99.90;;;;;;5048230;28;20021;-80
2024/04/05 07:16:43;;;;;;;9.98;4.10;;;11.60;99.90;;;;;;5075768;28;20369;-77
2024/04/05 07:19:08;;;;;;;12.32;3.60;;;11.70;99.90;;;;;;5074027;28;20032;-80
2024/04/05 07:21:34;;;;;;;7.85;3.42;;;11.80;99.90;;;;;;5042681;28;20017;-79
2024/04/05 07:23:59;;;;;;;5.70;2.97;;;11.80;99.90;;;;;;5047767;28;20021;-79
2024/04/05 07:26:25;;;;;;;5.47;2.90;;;11.90;99.90;;;;;;5045214;28;20032;-79
2024/04/05 07:28:52;;;;;;;7.82;3.13;;;11.90;99.90;;;;;;5072646;28;20124;-77
2024/04/05 07:31:17;;;;;;;12.70;2.70;;;12.00;99.90;;;;;;5047908;28;20074;-77
2024/04/05 07:33:43;;;;;;;7.22;3.58;;;12.00;99.90;;;;;;5071769;28;20038;-78
2024/04/05 07:36:08;;;;;;;10.23;3.85;;;12.10;99.90;;;;;;5043014;28;20138;-79
2024/04/05 07:38:34;;;;;;;6.95;3.67;;;12.10;99.90;;;;;;5049289;28;20116;-77
2024/04/05 07:41:06;;;;;;;8.38;3.90;;;12.20;99.90;;;;;;5046736;28;20556;-79
2024/04/05 07:43:32;;;;;;;7.43;3.90;;;12.20;99.90;;;;;;5045057;28;20610;-77
2024/04/05 07:45:58;;;;;;;10.70;4.40;;;12.20;99.90;;;;;;5051350;28;20104;-78
2024/04/05 07:48:23;;;;;;;9.50;3.80;;;12.20;99.90;;;;;;5049594;28;20107;-78
2024/04/05 07:50:49;;;;;;;12.38;4.40;;;12.30;99.90;;;;;;5045588;28;20021;-77
2024/04/05 07:53:14;;;;;;;5.57;3.50;;;12.40;99.90;;;;;;5051588;28;20079;-78
2024/04/05 07:55:40;;;;;;;11.02;3.28;;;12.50;99.90;;;;;;5076024;28;20131;-77
2024/04/05 07:58:06;;;;;;;9.15;3.10;;;12.60;99.90;;;;;;5047428;28;20083;-76
2024/04/05 08:00:31;;;;;;;5.32;2.90;;;12.60;99.90;;;;;;5045414;28;20033;-78
2024/04/05 08:02:57;;;;;;;16.20;2.20;;;12.70;99.90;;;;;;5050277;28;20025;-76
2024/04/05 08:05:22;;;;;;;7.22;1.90;;;12.70;99.90;;;;;;5047913;28;20048;-78
2024/04/05 08:07:48;;;;;;;6.40;2.30;;;12.80;99.90;;;;;;5049436;28;20399;-77
2024/04/05 08:10:14;;;;;;;5.72;1.83;;;13.00;99.90;;;;;;5050970;28;20059;-77
2024/04/05 08:12:40;;;;;;;3.75;1.73;;;13.00;99.90;;;;;;5074410;28;20555;-78
2024/04/05 08:15:10;;;;;;;5.57;1.60;;;13.10;99.90;;;;;;5044956;28;20020;-77
2024/04/05 08:17:35;;;;;;;;;;;13.10;99.90;;;;;;5072868;28;20036;-77
2024/04/05 08:20:02;;;;;;;3.92;1.83;;;13.20;99.90;;;;;;5048008;28;19909;-77
2024/04/05 08:22:27;;;;;;;7.47;2.58;;;13.10;99.90;;;;;;5075593;28;20521;-77
2024/04/05 08:24:53;;;;;;;8.13;2.53;;;13.20;99.90;;;;;;5045498;28;20101;-77
2024/04/05 08:27:19;;;;;;;2.88;1.70;;;13.40;99.90;;;;;;5049201;28;20023;-78
2024/04/05 08:29:45;;;;;;;3.63;1.92;;;13.70;99.90;;;;;;5073132;28;20124;-79
2024/04/05 08:32:11;;;;;;;2.05;1.70;;;14.00;99.90;;;;;;5044353;28;20021;-76
2024/04/05 08:34:37;;;;;;;6.15;2.38;;;14.00;99.90;;;;;;5048119;28;20107;-76
2024/04/05 08:37:04;;;;;;;4.13;1.58;;;14.20;99.90;;;;;;5048219;28;20065;-77
2024/04/05 08:39:29;;;;;;;8.35;1.92;;;14.40;99.90;;;;;;5041102;28;20646;-77
2024/04/05 08:42:12;;;;;;;4.70;1.80;;;14.60;99.90;;;;;;5048294;28;20033;-77
2024/04/05 08:44:39;;;;;;;3.33;1.80;;;14.50;99.90;;;;;;5044877;28;20028;-78
2024/04/05 08:47:08;;;;;;;4.18;1.70;;;14.70;99.90;;;;;;5073720;28;20032;-78
2024/04/05 08:49:34;;;;;;;3.13;2.10;;;14.80;99.90;;;;;;5046029;28;20025;-77
2024/04/05 08:52:00;;;;;;;5.85;1.90;;;14.90;99.90;;;;;;5049779;28;20021;-77
2024/04/05 08:54:28;;;;;;;3.92;1.83;;;15.00;99.90;;;;;;5048156;28;20017;-77
2024/04/05 08:56:55;;;;;;;4.82;1.90;;;15.10;99.90;;;;;;5047820;28;20021;-76
2024/04/05 08:59:22;;;;;;;5.85;1.88;;;15.20;99.90;;;;;;5042941;28;20112;-77
2024/04/05 09:01:51;;;;;;;5.70;1.85;;;15.30;99.90;;;;;;5077952;28;20017;-73
2024/04/05 09:04:17;;;;;;;4.97;2.00;;;15.30;99.90;;;;;;5046445;28;20044;-80
2024/04/05 09:06:43;;;;;;;12.45;2.10;;;16.50;99.90;;;;;;5047013;28;20029;-79
2024/04/05 09:09:09;;;;;;;16.63;1.65;;;17.10;99.90;;;;;;5045234;28;20013;-79
2024/04/05 09:11:37;;;;;;;3.33;2.03;;;17.50;99.90;;;;;;5049265;28;20034;-78
2024/04/05 09:14:03;;;;;;;4.80;1.45;;;17.60;99.90;;;;;;5079629;28;20028;-79
2024/04/05 09:16:31;;;;;;;2.47;1.65;;;17.70;99.90;;;;;;5039795;28;20022;-79
2024/04/05 09:19:03;;;;;;;3.28;1.50;;;17.60;99.90;;;;;;5044979;28;20025;-79
2024/04/05 09:21:29;;;;;;;10.43;1.90;;;17.30;99.90;;;;;;5049294;28;20021;-79
2024/04/05 09:23:54;;;;;;;2.70;1.92;;;17.50;99.90;;;;;;5043775;28;20030;-79
2024/04/05 09:26:27;;;;;;;2.08;1.50;;;17.50;99.90;;;;;;5046654;28;20017;-81
2024/04/05 09:29:03;;;;;;;1.83;1.20;;;17.30;99.90;;;;;;5047594;28;20115;-80
2024/04/05 09:31:29;;;;;;;3.53;1.55;;;17.40;99.90;;;;;;5044883;28;20025;-80
2024/04/05 09:34:05;;;;;;;4.10;1.65;;;17.50;99.90;;;;;;5037723;28;20713;-80
2024/04/05 09:36:35;;;;;;;4.53;1.20;;;17.50;99.90;;;;;;5043171;28;20029;-79
2024/04/05 09:39:03;;;;;;;5.95;1.50;;;17.30;99.90;;;;;;5045081;28;20030;-79
2024/04/05 09:41:33;;;;;;;2.45;1.55;;;17.50;99.90;;;;;;5041586;28;20174;-80
2024/04/05 09:44:01;;;;;;;3.40;1.30;;;17.50;99.90;;;;;;5079923;28;20032;-80
2024/04/05 09:46:27;;;;;;;1.75;1.13;;;17.60;99.90;;;;;;5044014;28;20029;-79
2024/04/05 09:48:55;;;;;;;6.35;1.30;;;17.50;99.90;;;;;;5041602;28;20029;-80
2024/04/05 09:51:31;;;;;;;7.00;1.45;;;17.50;99.90;;;;;;5048936;28;20502;-79
2024/04/05 09:54:00;;;;;;;1.52;1.00;;;17.30;99.90;;;;;;5077242;28;20037;-79
2024/04/05 09:56:28;;;;;;;8.27;1.35;;;17.20;99.90;;;;;;5042028;28;20020;-74
2024/04/05 09:58:55;;;;;;;5.35;1.48;;;17.30;99.90;;;;;;5045893;28;20036;-76
2024/04/05 10:01:21;;;;;;;25.67;1.88;;;17.50;99.90;;;;;;5046421;28;20017;-80
2024/04/05 10:03:47;;;;;;;2.90;1.35;;;17.50;99.90;;;;;;5073518;28;20025;-79
2024/04/05 10:06:15;;;;;;;3.20;1.20;;;17.60;99.90;;;;;;5077608;28;20078;-78
2024/04/05 10:08:41;;;;;;;2.97;1.40;;;17.60;99.90;;;;;;5046349;28;20033;-79
2024/04/05 10:11:11;;;;;;;5.20;1.08;;;17.30;99.90;;;;;;5048541;28;20055;-80
2024/04/05 10:13:38;;;;;;;5.07;1.77;;;17.40;99.90;;;;;;5048742;28;20029;-79
2024/04/05 10:16:04;;;;;;;5.30;1.50;;;17.30;99.90;;;;;;5046497;28;20029;-79
2024/04/05 10:18:34;;;;;;;4.43;1.45;;;17.50;99.90;;;;;;5044218;28;20058;-78
2024/04/05 10:21:04;;;;;;;3.92;1.35;;;17.40;99.90;;;;;;5044627;28;20044;-79
2024/04/05 10:23:32;;;;;;;2.80;1.20;;;17.50;99.90;;;;;;5046739;28;20029;-79
2024/04/05 10:25:57;;;;;;;2.03;1.55;;;17.50;99.90;;;;;;5043039;28;20104;-80
2024/04/05 10:28:23;;;;;;;3.47;1.25;;;17.50;99.90;;;;;;5078620;28;20107;-79
2024/04/05 10:30:49;;;;;;;7.97;2.20;;;17.50;99.90;;;;;;5046106;28;20110;-79
2024/04/05 10:33:21;;;;;;;12.93;1.85;;;17.60;99.90;;;;;;5045904;28;20060;-79
2024/04/05 10:35:48;;;;;;;10.95;1.98;;;17.50;99.90;;;;;;5042823;28;20171;-79
2024/04/05 10:38:16;;;;;;;4.35;1.63;;;17.60;99.90;;;;;;5047665;28;20053;-81
2024/04/05 10:40:55;;;;;;;12.38;1.27;;;17.70;99.90;;;;;;5046684;28;20075;-81
2024/04/05 10:43:20;;;;;;;3.78;1.52;;;17.80;99.90;;;;;;5043621;28;20048;-82
2024/04/05 10:45:53;;;;;;;5.32;1.50;;;17.70;99.90;;;;;;5080580;28;20025;-81
2024/04/05 10:48:19;;;;;;;4.05;1.60;;;17.80;99.90;;;;;;5044597;28;20025;-81
2024/04/05 10:50:44;;;;;;;5.22;1.83;;;17.70;99.90;;;;;;5042552;28;20052;-88
2024/04/05 10:53:19;;;;;;;4.28;1.67;;;17.80;99.90;;;;;;5051673;28;20116;-85
2024/04/05 10:55:45;;;;;;;5.65;1.67;;;17.80;99.90;;;;;;5079475;28;20501;-88
2024/04/05 10:58:11;;;;;;;1.63;1.17;;;17.80;99.90;;;;;;5076088;28;20112;-81
2024/04/05 11:00:38;;;;;;;4.22;1.40;;;17.90;99.90;;;;;;5046112;28;20048;-81
2024/04/05 11:03:05;;;;;;;5.78;1.58;;;18.00;99.90;;;;;;5079705;28;20025;-80
2024/04/05 11:05:31;;;;;;;4.90;1.67;;;18.10;99.90;;;;;;5076124;28;20138;-80
2024/04/05 11:07:59;;;;;;;3.72;1.50;;;17.80;99.90;;;;;;5047519;28;20495;-80
2024/04/05 11:10:32;;;;;;;2.97;1.55;;;17.60;99.90;;;;;;5049421;28;20494;-81
2024/04/05 11:12:59;;;;;;;7.00;1.50;;;17.40;99.90;;;;;;5079202;28;20053;-81
2024/04/05 11:15:24;;;;;;;5.60;1.88;;;17.50;99.90;;;;;;5082690;28;20021;-80
2024/04/05 11:18:00;;;;;;;7.13;1.30;;;17.60;99.90;;;;;;5083093;28;20060;-80
2024/04/05 11:20:27;;;;;;;7.55;1.90;;;17.80;99.90;;;;;;5052099;28;20486;-81
2024/04/05 11:23:16;;;;;;;3.70;1.30;;;17.90;99.90;;;;;;5047123;28;20032;-80
2024/04/05 11:25:50;;;;;;;5.13;1.25;;;18.00;99.90;;;;;;5040136;28;20025;-81
2024/04/05 11:28:16;;;;;;;5.40;1.70;;;18.00;99.90;;;;;;5048228;28;20021;-80
2024/04/05 11:30:42;;;;;;;3.25;1.13;;;17.90;99.90;;;;;;5047021;28;20025;-83
2024/04/05 11:33:08;;;;;;;4.03;1.48;;;18.00;99.90;;;;;;5050865;28;20039;-80
2024/04/05 11:35:34;;;;;;;4.03;1.38;;;17.70;99.90;;;;;;5048874;28;20056;-82
2024/04/05 11:38:00;;;;;;;5.20;1.58;;;17.60;99.90;;;;;;5044555;28;20490;-81
2024/04/05 11:40:25;;;;;;;1.45;0.80;;;17.50;99.90;;;;;;5052081;28;20027;-81
2024/04/05 11:42:51;;;;;;;1.55;0.90;;;17.40;99.90;;;;;;5080240;28;20025;-80
2024/04/05 11:45:18;;;;;;;4.95;1.08;;;17.60;99.90;;;;;;5051148;28;20071;-80
2024/04/05 11:47:46;;;;;;;2.42;0.93;;;17.90;99.90;;;;;;5084383;28;20464;-80
2024/04/05 11:50:13;;;;;;;3.53;1.13;;;18.00;99.90;;;;;;5081411;28;20031;-80
2024/04/05 11:52:39;;;;;;;4.90;0.85;;;18.40;99.90;;;;;;5080725;28;20029;-81
2024/04/05 11:55:05;;;;;;;2.05;0.82;;;18.80;99.90;;;;;;5051200;28;20032;-81
2024/04/05 11:57:31;;;;;;;7.72;1.00;;;18.80;99.90;;;;;;5051116;28;20021;-81
2024/04/05 11:59:57;;;;;;;1.52;0.80;;;18.50;99.90;;;;;;5045998;28;20124;-82
2024/04/05 12:02:23;;;;;;;1.42;0.90;;;18.40;99.90;;;;;;5051217;28;20009;-81
2024/04/05 12:04:49;;;;;;;2.88;0.68;;;18.60;99.90;;;;;;5050151;28;20019;-80
2024/04/05 12:07:15;;;;;;;1.00;0.70;;;18.60;99.90;;;;;;5079460;28;20040;-81
2024/04/05 12:09:41;;;;;;;1.35;0.70;;;18.60;99.90;;;;;;5046530;28;20028;-80
2024/04/05 12:12:08;;;;;;;1.20;0.80;;;18.30;99.90;;;;;;5083043;28;20079;-80
2024/04/05 12:14:34;;;;;;;0.80;0.80;;;18.10;99.90;;;;;;5048771;28;20112;-80
2024/04/05 12:17:01;;;;;;;2.78;0.90;;;18.40;99.90;;;;;;5046975;28;20083;-80
2024/04/05 12:19:27;;;;;;;2.97;0.90;;;18.80;99.90;;;;;;5050945;28;20013;-80
2024/04/05 12:21:52;;;;;;;4.57;0.95;;;18.90;99.70;;;;;;5046077;28;20096;-81
2024/04/05 12:24:18;;;;;;;0.85;0.77;;;18.80;96.70;;;;;;5050547;28;20104;-81
2024/04/05 12:26:44;;;;;;;1.85;0.82;;;18.80;97.60;;;;;;5052222;28;20047;-81
2024/04/05 12:29:09;;;;;;;1.65;0.60;;;19.00;97.40;;;;;;5080633;28;20116;-79
2024/04/05 12:31:35;;;;;;;1.23;0.80;;;19.00;96.00;;;;;;5046631;28;20033;-79
2024/04/05 12:34:00;;;;;;;2.00;0.95;;;18.90;96.90;;;;;;5050577;28;20461;-80
2024/04/05 12:36:26;;;;;;;1.70;0.80;;;18.70;97.50;;;;;;5050127;28;20032;-80
2024/04/05 12:38:56;;;;;;;0.80;0.57;;;18.40;98.80;;;;;;5048834;28;20029;-80
2024/04/05 12:41:25;;;;;;;0.88;0.82;;;18.40;97.90;;;;;;5050428;28;20021;-81
2024/04/05 12:43:51;;;;;;;0.65;0.60;;;18.30;97.80;;;;;;5081898;28;20368;-80